x

Destruction Island, Wa (desw1) Weather Station

3:00am - Mon 31st Aug 2015 All times are PDT. -7 hours from GMT.

  • Wind
    26mph, 28mph gusts
  • Air Temp 57°f
  • Sea Pressure 1012.8mb
  • Destruction Island, Wa
  • Destruction Island, Wa

More Historic Weather Station data

Upgrade to MSW Pro to gain access to the past 30 days of data for over 8000 Wavebouys and Weather Stations around the globe.

Join Pro

Comparision Forecast

View Surf forecast
   
Mon 08/31 3:00am 26 28 mph 1012.8mb 57f
2:00am 24 26 mph 1012.9mb 57f
1:00am 28 31 mph 1013.3mb 57f
12:00am 31 36 mph 1013.4mb 58f
Sun 08/30 11:00pm 24 30 mph 1013.8mb 58f
10:00pm 25 29 mph 1014mb 58f
9:00pm 25 26 mph 1014.2mb 58f
8:00pm 24 26 mph 1014.4mb 58f
7:00pm 20 22 mph 1014.6mb 57f
6:00pm 18 20 mph 1014.6mb 58f
5:00pm 20 21 mph 1014.6mb 58f
4:00pm 17 18 mph 1014.4mb 58f
3:00pm 18 20 mph 1014.2mb 58f
2:00pm 20 21 mph 1013.8mb 59f
1:00pm 20 21 mph 1013.1mb 59f
12:00pm 17 20 mph 1012.7mb 58f
11:00am 17 20 mph 1012.2mb 58f
10:00am 16 17 mph 1011.5mb 58f
9:00am 16 17 mph 1010.5mb 57f
8:00am 16 17 mph 1009.8mb 57f
7:00am 16 17 mph 1008.9mb 55f
6:00am 14 16 mph 1008.1mb 55f
5:00am 15
mph
1007.8mb 55f
4:00am 20 21 mph 1007.3mb 55f
3:00am 17 18 mph 1007.1mb 55f
2:00am 25 26 mph 1006.7mb 55f
1:00am 23 24 mph 1006.4mb 55f
12:00am 21 23 mph 1006.6mb 56f
Sat 08/29 11:00pm 22
mph
1006.4mb 55f
10:00pm 26 29 mph 1006.6mb 56f
9:00pm 25 26 mph 1006.4mb 55f
8:00pm 25 28 mph 1006.1mb 56f
7:00pm 29 31 mph 1006mb 56f
6:00pm 33 36 mph 1005.8mb 56f
5:00pm 34 37 mph 1005.1mb 56f
4:00pm 44 56 mph 1004.3mb 57f
3:00pm 43 46 mph 1003.6mb 56f
2:00pm 29 32 mph 1003.8mb 56f
1:00pm 32 34 mph 1002.7mb 59f
12:00pm 43 49 mph 998.4mb 57f
11:00am 55 62 mph 996.7mb 57f
10:00am 79 87 mph 991.8mb 58f
9:00am 45 52 mph 994.8mb 58f
8:00am 45 49 mph 997.3mb 61f
7:00am 46 51 mph 997.4mb 60f
6:00am 37 43 mph 997.2mb 60f
5:00am 37 39 mph 998.3mb 62f
4:00am 29 33 mph 999.3mb 60f
3:00am 16 17 mph 998.1mb 62f
2:00am 17 18 mph 1000.1mb 64f
1:00am 14 15 mph 1001.6mb 60f
12:00am 9
mph
1003.4mb 61f
Fri 08/28 11:00pm 10
mph
1004.8mb 62f
10:00pm 10 11 mph 1006.4mb 59f
9:00pm 6
mph
1007.8mb 59f
8:00pm 6
mph
1008.3mb 60f
7:00pm 7 8 mph 1008.9mb 58f
6:00pm 2
mph
1010.4mb 61f
5:00pm 2 3 mph 1011.4mb 60f
4:00pm  -  2 mph 1012.3mb 61f
3:00pm 6 8 mph 1013.2mb 61f
2:00pm 13
mph
1014.2mb 58f
1:00pm 11 13 mph 1014.3mb 57f
12:00pm 13 14 mph 1014.5mb 58f
11:00am 17 18 mph 1014.2mb 58f
10:00am 17 20 mph 1014.3mb 56f
9:00am 20 21 mph 1014.5mb 56f
8:00am 25 28 mph 1014.3mb 56f
7:00am 20 22 mph 1014.2mb 58f
6:00am 21 22 mph 1014.3mb 56f
5:00am 21 23 mph 1014.5mb 57f
4:00am 20 21 mph 1014.8mb 56f
3:00am 21 22 mph 1015.1mb 57f
2:00am 15 16 mph 1015mb 57f
1:00am 11 13 mph 1015.4mb 57f
12:00am 9 10 mph 1015.9mb 57f
Thu 08/27 11:00pm 10
mph
1016.7mb 57f
10:00pm 7 8 mph 1017mb 56f
9:00pm 2
mph
1016.1mb 55f
8:00pm 5
mph
1015.8mb 55f
7:00pm 2
mph
1015.7mb 56f
6:00pm 2 3 mph 1016.1mb 57f
5:00pm 1 2 mph 1016.5mb 59f
4:00pm 1 2 mph 1017.4mb 58f
3:00pm 2 3 mph 1018.2mb 57f
2:00pm 9
mph
1018.9mb 57f
1:00pm 10
mph
1019mb 57f
12:00pm 9 10 mph 1018.9mb 56f